PGT90AR LTFJ-LTCD
Flight info
| Callsign | PGT90AR |
|---|---|
| Flight time | 1h 20m |
| Altitude | 35000 |
| Route | VICEN1K/24R VICEN UT380 ASMAP UL333 LATGA UT363 GURBU UL615 EZN |
| Aircraft | A21N/M-SDE2E3FGHIJ1RWXY/LB1 |
Departure
| Time | 2026-04-24 19:10 |
|---|---|
| Airport | Istanbul Sabiha Gökçen International Airport (LTFJ) |
Arrival
| Time | 2026-04-24 20:31 |
|---|---|
| Airport | Erzincan Airport (LTCD) |
| Time | Latitude | Longitude | Altitude | Speed | Heading |
|---|---|---|---|---|---|
| 2026-04-24 18:54 | 40.90439 | 29.31632 | 316 ft | 0 kts | 154° |
| 2026-04-24 19:00 | 40.90458 | 29.31619 | 316 ft | 4 kts | 150° |
| 2026-04-24 19:00 | 40.90481 | 29.31599 | 316 ft | 4 kts | 137° |
| 2026-04-24 19:00 | 40.90495 | 29.31573 | 316 ft | 4 kts | 97° |
| 2026-04-24 19:01 | 40.90494 | 29.31558 | 316 ft | 0 kts | 66° |
| 2026-04-24 19:04 | 40.90498 | 29.31568 | 316 ft | 2 kts | 66° |
| 2026-04-24 19:05 | 40.90508 | 29.31597 | 316 ft | 5 kts | 66° |
| 2026-04-24 19:05 | 40.90526 | 29.31647 | 316 ft | 7 kts | 63° |
| 2026-04-24 19:05 | 40.90552 | 29.31715 | 315 ft | 10 kts | 63° |
| 2026-04-24 19:05 | 40.90586 | 29.31804 | 315 ft | 12 kts | 63° |
| 2026-04-24 19:06 | 40.90603 | 29.31913 | 315 ft | 14 kts | 134° |
| 2026-04-24 19:06 | 40.90513 | 29.31982 | 316 ft | 16 kts | 156° |
| 2026-04-24 19:06 | 40.90503 | 29.32109 | 316 ft | 17 kts | 62° |
| 2026-04-24 19:06 | 40.90557 | 29.32256 | 316 ft | 18 kts | 64° |
| 2026-04-24 19:07 | 40.90590 | 29.32401 | 315 ft | 11 kts | 122° |
| 2026-04-24 19:07 | 40.90528 | 29.32455 | 316 ft | 6 kts | 153° |
| 2026-04-24 19:07 | 40.90520 | 29.32460 | 316 ft | 0 kts | 153° |
| 2026-04-24 19:08 | 40.90520 | 29.32461 | 316 ft | 0 kts | 153° |
| 2026-04-24 19:08 | 40.90508 | 29.32468 | 315 ft | 3 kts | 153° |
| 2026-04-24 19:09 | 40.90476 | 29.32489 | 318 ft | 6 kts | 154° |
| 2026-04-24 19:09 | 40.90431 | 29.32490 | 316 ft | 9 kts | 246° |
| 2026-04-24 19:09 | 40.90402 | 29.32406 | 318 ft | 11 kts | 245° |
| 2026-04-24 19:09 | 40.90296 | 29.32121 | 319 ft | 69 kts | 243° |
| 2026-04-24 19:10 | 40.89992 | 29.31293 | 316 ft | 130 kts | 244° |
| 2026-04-24 19:10 | 40.89542 | 29.30069 | 407 ft | 162 kts | 244° |
| 2026-04-24 19:10 | 40.89070 | 29.28724 | 937 ft | 162 kts | 246° |
| 2026-04-24 19:10 | 40.88577 | 29.27342 | 1390 ft | 172 kts | 242° |
| 2026-04-24 19:11 | 40.88023 | 29.25872 | 1832 ft | 185 kts | 244° |
| 2026-04-24 19:11 | 40.87444 | 29.24281 | 2381 ft | 199 kts | 244° |
| 2026-04-24 19:11 | 40.86828 | 29.22574 | 2961 ft | 213 kts | 244° |
| 2026-04-24 19:11 | 40.86163 | 29.20733 | 3483 ft | 233 kts | 244° |
| 2026-04-24 19:12 | 40.85431 | 29.18720 | 4049 ft | 251 kts | 242° |
| 2026-04-24 19:12 | 40.84327 | 29.16878 | 4662 ft | 264 kts | 216° |
| 2026-04-24 19:12 | 40.82638 | 29.15955 | 5433 ft | 267 kts | 186° |
| 2026-04-24 19:12 | 40.80807 | 29.16271 | 6251 ft | 270 kts | 158° |
| 2026-04-24 19:13 | 40.79745 | 29.17129 | 6771 ft | 274 kts | 138° |
| 2026-04-24 19:13 | 40.78508 | 29.20057 | 7780 ft | 281 kts | 101° |
| 2026-04-24 19:13 | 40.78258 | 29.22634 | 8592 ft | 286 kts | 95° |
| 2026-04-24 19:13 | 40.78060 | 29.25259 | 9409 ft | 289 kts | 95° |
| 2026-04-24 19:14 | 40.77834 | 29.27909 | 10192 ft | 295 kts | 96° |
| 2026-04-24 19:14 | 40.77573 | 29.30683 | 10597 ft | 315 kts | 96° |
| 2026-04-24 19:14 | 40.77277 | 29.33642 | 10913 ft | 336 kts | 97° |
| 2026-04-24 19:14 | 40.76949 | 29.36777 | 11333 ft | 352 kts | 97° |
| 2026-04-24 19:15 | 40.76606 | 29.39999 | 12010 ft | 358 kts | 97° |
| 2026-04-24 19:15 | 40.76253 | 29.43278 | 12738 ft | 363 kts | 97° |
| 2026-04-24 19:15 | 40.75894 | 29.46593 | 13442 ft | 367 kts | 97° |
| 2026-04-24 19:15 | 40.75532 | 29.49945 | 14114 ft | 372 kts | 97° |
| 2026-04-24 19:16 | 40.74788 | 29.56781 | 15433 ft | 381 kts | 97° |
| 2026-04-24 19:16 | 40.74409 | 29.60259 | 16063 ft | 385 kts | 97° |
| 2026-04-24 19:16 | 40.74023 | 29.63775 | 16673 ft | 390 kts | 97° |
| 2026-04-24 19:17 | 40.73637 | 29.67284 | 17255 ft | 394 kts | 97° |
| 2026-04-24 19:17 | 40.73241 | 29.70877 | 17836 ft | 398 kts | 97° |
| 2026-04-24 19:17 | 40.72838 | 29.74513 | 18406 ft | 403 kts | 97° |
| 2026-04-24 19:17 | 40.72432 | 29.78176 | 18969 ft | 406 kts | 97° |
| 2026-04-24 19:18 | 40.72022 | 29.81868 | 19529 ft | 409 kts | 97° |
| 2026-04-24 19:18 | 40.71607 | 29.85591 | 20084 ft | 412 kts | 97° |
| 2026-04-24 19:18 | 40.71187 | 29.89336 | 20618 ft | 415 kts | 97° |
| 2026-04-24 19:18 | 40.70763 | 29.93110 | 21135 ft | 418 kts | 97° |
| 2026-04-24 19:19 | 40.70335 | 29.96908 | 21654 ft | 420 kts | 97° |
| 2026-04-24 19:19 | 40.69905 | 30.00725 | 22155 ft | 423 kts | 97° |
| 2026-04-24 19:19 | 40.69471 | 30.04567 | 22582 ft | 427 kts | 97° |
| 2026-04-24 19:19 | 40.69031 | 30.08453 | 23032 ft | 431 kts | 97° |
| 2026-04-24 19:20 | 40.68583 | 30.12371 | 23496 ft | 434 kts | 97° |
| 2026-04-24 19:20 | 40.68133 | 30.16313 | 23956 ft | 436 kts | 97° |
| 2026-04-24 19:20 | 40.67680 | 30.20280 | 24413 ft | 439 kts | 97° |
| 2026-04-24 19:20 | 40.67221 | 30.24272 | 24852 ft | 442 kts | 97° |
| 2026-04-24 19:21 | 40.66759 | 30.28287 | 25296 ft | 445 kts | 97° |
| 2026-04-24 19:21 | 40.66364 | 30.32334 | 25716 ft | 447 kts | 95° |
| 2026-04-24 19:21 | 40.66025 | 30.36412 | 26125 ft | 449 kts | 95° |
| 2026-04-24 19:21 | 40.65689 | 30.40508 | 26514 ft | 451 kts | 95° |
| 2026-04-24 19:22 | 40.65465 | 30.43233 | 26752 ft | 453 kts | 95° |
| 2026-04-24 19:22 | 40.65005 | 30.48771 | 27238 ft | 456 kts | 95° |
| 2026-04-24 19:22 | 40.64659 | 30.52932 | 27570 ft | 459 kts | 95° |
| 2026-04-24 19:22 | 40.64307 | 30.57118 | 27897 ft | 461 kts | 95° |
| 2026-04-24 19:23 | 40.63951 | 30.61322 | 28227 ft | 464 kts | 95° |
| 2026-04-24 19:23 | 40.63594 | 30.65549 | 28554 ft | 466 kts | 95° |
| 2026-04-24 19:23 | 40.63215 | 30.69793 | 28870 ft | 468 kts | 97° |
| 2026-04-24 19:23 | 40.62536 | 30.74002 | 29179 ft | 472 kts | 104° |
| 2026-04-24 19:24 | 40.61664 | 30.78178 | 29489 ft | 474 kts | 104° |
| 2026-04-24 19:24 | 40.60765 | 30.82362 | 29775 ft | 477 kts | 105° |
| 2026-04-24 19:24 | 40.59865 | 30.86561 | 30047 ft | 478 kts | 104° |
| 2026-04-24 19:24 | 40.59271 | 30.89360 | 30258 ft | 479 kts | 104° |
| 2026-04-24 19:25 | 40.58380 | 30.93578 | 30592 ft | 479 kts | 104° |
| 2026-04-24 19:25 | 40.57486 | 30.97801 | 30909 ft | 480 kts | 105° |
| 2026-04-24 19:25 | 40.56584 | 31.02036 | 31195 ft | 481 kts | 105° |
| 2026-04-24 19:25 | 40.55385 | 31.07645 | 31625 ft | 481 kts | 105° |
| 2026-04-24 19:26 | 40.54481 | 31.11874 | 31927 ft | 481 kts | 105° |
| 2026-04-24 19:26 | 40.53868 | 31.14737 | 32135 ft | 482 kts | 105° |
| 2026-04-24 19:26 | 40.52962 | 31.18976 | 32404 ft | 482 kts | 105° |
| 2026-04-24 19:26 | 40.52051 | 31.23213 | 32667 ft | 482 kts | 105° |
| 2026-04-24 19:27 | 40.51135 | 31.27453 | 32937 ft | 482 kts | 106° |
| 2026-04-24 19:27 | 40.50214 | 31.31694 | 33189 ft | 483 kts | 106° |
| 2026-04-24 19:27 | 40.49291 | 31.35936 | 33424 ft | 483 kts | 106° |
| 2026-04-24 19:27 | 40.48366 | 31.40182 | 33651 ft | 484 kts | 106° |
| 2026-04-24 19:28 | 40.47443 | 31.44437 | 33853 ft | 485 kts | 107° |
| 2026-04-24 19:28 | 40.46514 | 31.48693 | 34098 ft | 485 kts | 107° |
| 2026-04-24 19:28 | 40.45582 | 31.52950 | 34322 ft | 485 kts | 107° |
| 2026-04-24 19:28 | 40.44655 | 31.57208 | 34524 ft | 486 kts | 107° |
| 2026-04-24 19:29 | 40.42801 | 31.65673 | 34917 ft | 486 kts | 107° |
| 2026-04-24 19:29 | 40.41855 | 31.69995 | 35069 ft | 487 kts | 107° |
| 2026-04-24 19:30 | 40.39986 | 31.78463 | 35073 ft | 487 kts | 108° |
| 2026-04-24 19:30 | 40.38102 | 31.86990 | 35043 ft | 487 kts | 108° |
| 2026-04-24 19:31 | 40.36212 | 31.95511 | 35037 ft | 487 kts | 108° |
| 2026-04-24 19:31 | 40.34303 | 32.04032 | 35041 ft | 487 kts | 108° |
| 2026-04-24 19:32 | 40.32464 | 32.12591 | 35041 ft | 489 kts | 106° |
| 2026-04-24 19:32 | 40.30768 | 32.21215 | 35033 ft | 488 kts | 106° |
| 2026-04-24 19:33 | 40.29063 | 32.29831 | 35030 ft | 489 kts | 106° |
| 2026-04-24 19:33 | 40.27352 | 32.38447 | 35033 ft | 489 kts | 106° |
| 2026-04-24 19:34 | 40.25635 | 32.47057 | 35026 ft | 489 kts | 106° |
| 2026-04-24 19:34 | 40.23907 | 32.55666 | 35029 ft | 490 kts | 106° |
| 2026-04-24 19:35 | 40.22164 | 32.64283 | 35029 ft | 489 kts | 107° |
| 2026-04-24 19:35 | 40.20422 | 32.72898 | 35031 ft | 491 kts | 106° |
| 2026-04-24 19:36 | 40.18671 | 32.81513 | 35021 ft | 490 kts | 107° |
| 2026-04-24 19:36 | 40.16911 | 32.90132 | 35023 ft | 490 kts | 107° |
| 2026-04-24 19:37 | 40.15168 | 32.98760 | 35018 ft | 492 kts | 104° |
| 2026-04-24 19:37 | 40.14698 | 33.03191 | 35023 ft | 494 kts | 92° |
| 2026-04-24 19:37 | 40.14745 | 33.07680 | 35025 ft | 495 kts | 88° |
| 2026-04-24 19:38 | 40.15070 | 33.16666 | 35019 ft | 495 kts | 88° |
| 2026-04-24 19:38 | 40.15347 | 33.25671 | 35017 ft | 496 kts | 88° |
| 2026-04-24 19:39 | 40.15593 | 33.34698 | 35038 ft | 497 kts | 88° |
| 2026-04-24 19:39 | 40.15839 | 33.43744 | 35041 ft | 499 kts | 88° |
| 2026-04-24 19:40 | 40.16084 | 33.52743 | 35043 ft | 500 kts | 89° |
| 2026-04-24 19:40 | 40.16312 | 33.61823 | 35046 ft | 500 kts | 89° |
| 2026-04-24 19:41 | 40.16532 | 33.70917 | 35036 ft | 501 kts | 89° |
| 2026-04-24 19:41 | 40.16749 | 33.80035 | 35056 ft | 502 kts | 89° |
| 2026-04-24 19:42 | 40.16074 | 33.89056 | 35056 ft | 499 kts | 103° |
| 2026-04-24 19:42 | 40.14876 | 33.98003 | 35052 ft | 500 kts | 101° |
| 2026-04-24 19:43 | 40.13896 | 34.07004 | 35052 ft | 500 kts | 100° |
| 2026-04-24 19:43 | 40.12921 | 34.15993 | 35049 ft | 499 kts | 100° |
| 2026-04-24 19:44 | 40.11933 | 34.24980 | 35050 ft | 500 kts | 100° |
| 2026-04-24 19:44 | 40.10941 | 34.33980 | 35048 ft | 501 kts | 100° |
| 2026-04-24 19:45 | 40.09944 | 34.42987 | 35048 ft | 501 kts | 100° |
| 2026-04-24 19:45 | 40.08937 | 34.51994 | 35048 ft | 502 kts | 101° |
| 2026-04-24 19:46 | 40.07922 | 34.61007 | 35051 ft | 502 kts | 101° |
| 2026-04-24 19:46 | 40.06895 | 34.70040 | 35049 ft | 503 kts | 101° |
| 2026-04-24 19:47 | 40.05858 | 34.79075 | 35050 ft | 505 kts | 101° |
| 2026-04-24 19:47 | 40.04816 | 34.88144 | 35052 ft | 505 kts | 101° |
| 2026-04-24 19:48 | 40.03766 | 34.97232 | 35052 ft | 507 kts | 101° |
| 2026-04-24 19:48 | 40.02173 | 35.10902 | 35050 ft | 509 kts | 102° |
| 2026-04-24 19:49 | 40.00017 | 35.29144 | 35048 ft | 512 kts | 102° |
| 2026-04-24 19:50 | 39.97759 | 35.47560 | 35040 ft | 516 kts | 104° |
| 2026-04-24 19:51 | 39.95993 | 35.61421 | 35042 ft | 516 kts | 104° |
| 2026-04-24 19:52 | 39.94214 | 35.75294 | 35051 ft | 518 kts | 104° |
| 2026-04-24 19:52 | 39.93018 | 35.84552 | 35052 ft | 518 kts | 104° |
| 2026-04-24 19:53 | 39.91813 | 35.93819 | 35048 ft | 518 kts | 104° |
| 2026-04-24 19:54 | 39.90002 | 36.07697 | 35053 ft | 518 kts | 104° |
| 2026-04-24 19:54 | 39.88787 | 36.16956 | 35051 ft | 519 kts | 104° |
| 2026-04-24 19:55 | 39.87758 | 36.24652 | 35052 ft | 519 kts | 105° |
| 2026-04-24 19:55 | 39.86234 | 36.35434 | 35051 ft | 518 kts | 106° |
| 2026-04-24 19:56 | 39.84966 | 36.44671 | 35051 ft | 519 kts | 105° |
| 2026-04-24 19:56 | 39.83732 | 36.53901 | 35051 ft | 517 kts | 105° |
| 2026-04-24 19:57 | 39.82498 | 36.63112 | 35052 ft | 517 kts | 105° |
| 2026-04-24 19:57 | 39.81261 | 36.72309 | 35052 ft | 516 kts | 105° |
| 2026-04-24 19:58 | 39.80009 | 36.81495 | 35052 ft | 516 kts | 105° |
| 2026-04-24 19:58 | 39.79102 | 36.90773 | 35043 ft | 523 kts | 92° |
| 2026-04-24 19:59 | 39.79767 | 37.00235 | 35052 ft | 526 kts | 86° |
| 2026-04-24 19:59 | 39.80594 | 37.09693 | 35051 ft | 527 kts | 86° |
| 2026-04-24 20:00 | 39.81370 | 37.19168 | 35052 ft | 527 kts | 87° |
| 2026-04-24 20:00 | 39.82126 | 37.28644 | 35050 ft | 527 kts | 87° |
| 2026-04-24 20:01 | 39.82868 | 37.38064 | 35051 ft | 527 kts | 87° |
| 2026-04-24 20:01 | 39.83606 | 37.47558 | 35054 ft | 528 kts | 87° |
| 2026-04-24 20:02 | 39.84216 | 37.55525 | 35062 ft | 528 kts | 87° |
| 2026-04-24 20:02 | 39.85056 | 37.66592 | 35064 ft | 529 kts | 87° |
| 2026-04-24 20:03 | 39.85772 | 37.76136 | 35061 ft | 530 kts | 87° |
| 2026-04-24 20:03 | 39.86484 | 37.85678 | 35061 ft | 530 kts | 88° |
| 2026-04-24 20:04 | 39.87179 | 37.95238 | 35061 ft | 531 kts | 88° |
| 2026-04-24 20:04 | 39.87886 | 38.04808 | 35060 ft | 531 kts | 87° |
| 2026-04-24 20:05 | 39.88592 | 38.14377 | 35063 ft | 531 kts | 88° |
| 2026-04-24 20:05 | 39.89276 | 38.23948 | 35062 ft | 531 kts | 88° |
| 2026-04-24 20:06 | 39.89950 | 38.33515 | 35063 ft | 530 kts | 88° |
| 2026-04-24 20:06 | 39.90621 | 38.43067 | 35052 ft | 530 kts | 88° |
| 2026-04-24 20:07 | 39.91168 | 38.50991 | 35067 ft | 530 kts | 88° |
| 2026-04-24 20:07 | 39.91939 | 38.62147 | 35065 ft | 528 kts | 88° |
| 2026-04-24 20:08 | 39.92579 | 38.71691 | 35060 ft | 529 kts | 88° |
| 2026-04-24 20:08 | 39.93215 | 38.81232 | 35066 ft | 529 kts | 88° |
| 2026-04-24 20:09 | 39.93129 | 38.90695 | 35049 ft | 516 kts | 110° |
| 2026-04-24 20:09 | 39.91937 | 38.95019 | 35059 ft | 500 kts | 124° |
| 2026-04-24 20:09 | 39.90345 | 38.99018 | 35066 ft | 497 kts | 127° |
| 2026-04-24 20:10 | 39.87192 | 39.07065 | 35066 ft | 501 kts | 123° |
| 2026-04-24 20:10 | 39.84239 | 39.15308 | 35060 ft | 502 kts | 123° |
| 2026-04-24 20:10 | 39.82788 | 39.19403 | 34553 ft | 498 kts | 123° |
| 2026-04-24 20:11 | 39.81327 | 39.23506 | 33375 ft | 503 kts | 123° |
| 2026-04-24 20:11 | 39.79842 | 39.27655 | 32110 ft | 510 kts | 123° |
| 2026-04-24 20:11 | 39.78336 | 39.31862 | 30904 ft | 515 kts | 122° |
| 2026-04-24 20:11 | 39.76832 | 39.36072 | 30041 ft | 510 kts | 122° |
| 2026-04-24 20:12 | 39.75849 | 39.38824 | 29494 ft | 506 kts | 122° |
| 2026-04-24 20:12 | 39.74371 | 39.42950 | 28648 ft | 500 kts | 122° |
| 2026-04-24 20:12 | 39.72916 | 39.47015 | 27895 ft | 492 kts | 122° |
| 2026-04-24 20:12 | 39.71479 | 39.51016 | 27094 ft | 485 kts | 122° |
| 2026-04-24 20:13 | 39.70038 | 39.54928 | 26322 ft | 473 kts | 128° |
| 2026-04-24 20:13 | 39.68148 | 39.58213 | 25889 ft | 437 kts | 146° |
| 2026-04-24 20:13 | 39.65835 | 39.60459 | 25577 ft | 396 kts | 164° |
| 2026-04-24 20:13 | 39.63383 | 39.61556 | 25280 ft | 356 kts | 184° |
| 2026-04-24 20:14 | 39.61032 | 39.61298 | 24964 ft | 331 kts | 208° |
| 2026-04-24 20:14 | 39.59182 | 39.59775 | 24846 ft | 308 kts | 232° |
| 2026-04-24 20:14 | 39.57930 | 39.57575 | 24426 ft | 302 kts | 242° |
| 2026-04-24 20:14 | 39.57375 | 39.54978 | 23947 ft | 305 kts | 265° |
| 2026-04-24 20:15 | 39.57589 | 39.52221 | 23471 ft | 308 kts | 273° |
| 2026-04-24 20:15 | 39.57781 | 39.49477 | 22997 ft | 305 kts | 270° |
| 2026-04-24 20:15 | 39.58181 | 39.46771 | 22497 ft | 310 kts | 282° |
| 2026-04-24 20:15 | 39.59038 | 39.44191 | 21990 ft | 312 kts | 288° |
| 2026-04-24 20:16 | 39.59985 | 39.41650 | 21392 ft | 314 kts | 289° |
| 2026-04-24 20:16 | 39.60959 | 39.39104 | 20750 ft | 316 kts | 290° |
| 2026-04-24 20:16 | 39.61957 | 39.36558 | 20100 ft | 318 kts | 292° |
| 2026-04-24 20:16 | 39.63295 | 39.34255 | 19460 ft | 334 kts | 309° |
| 2026-04-24 20:17 | 39.65279 | 39.32567 | 18807 ft | 353 kts | 329° |
| 2026-04-24 20:17 | 39.70354 | 39.32267 | 17521 ft | 388 kts | 9° |
| 2026-04-24 20:17 | 39.72832 | 39.33765 | 16893 ft | 400 kts | 29° |
| 2026-04-24 20:18 | 39.74289 | 39.35340 | 16458 ft | 406 kts | 43° |
| 2026-04-24 20:18 | 39.76316 | 39.39426 | 15612 ft | 410 kts | 69° |
| 2026-04-24 20:18 | 39.76935 | 39.43022 | 15011 ft | 407 kts | 88° |
| 2026-04-24 20:18 | 39.76758 | 39.46650 | 14490 ft | 399 kts | 100° |
| 2026-04-24 20:19 | 39.76018 | 39.50060 | 14010 ft | 387 kts | 119° |
| 2026-04-24 20:19 | 39.74559 | 39.52895 | 13585 ft | 371 kts | 136° |
| 2026-04-24 20:19 | 39.72697 | 39.55109 | 13170 ft | 357 kts | 149° |
| 2026-04-24 20:19 | 39.70545 | 39.56556 | 12764 ft | 342 kts | 166° |
| 2026-04-24 20:20 | 39.68264 | 39.57127 | 12362 ft | 328 kts | 181° |
| 2026-04-24 20:20 | 39.66035 | 39.56882 | 11958 ft | 317 kts | 196° |
| 2026-04-24 20:20 | 39.63991 | 39.55931 | 11559 ft | 309 kts | 210° |
| 2026-04-24 20:20 | 39.62238 | 39.54383 | 11169 ft | 302 kts | 223° |
| 2026-04-24 20:21 | 39.60869 | 39.52401 | 10986 ft | 290 kts | 235° |
| 2026-04-24 20:21 | 39.59941 | 39.50234 | 10999 ft | 293 kts | 247° |
| 2026-04-24 20:21 | 39.59396 | 39.47773 | 11008 ft | 278 kts | 259° |
| 2026-04-24 20:21 | 39.59282 | 39.45345 | 10980 ft | 263 kts | 274° |
| 2026-04-24 20:22 | 39.59724 | 39.43100 | 10977 ft | 257 kts | 292° |
| 2026-04-24 20:22 | 39.60721 | 39.41188 | 10996 ft | 258 kts | 311° |
| 2026-04-24 20:22 | 39.62173 | 39.39809 | 10992 ft | 263 kts | 330° |
| 2026-04-24 20:22 | 39.63909 | 39.39014 | 11006 ft | 267 kts | 340° |
| 2026-04-24 20:23 | 39.65701 | 39.38387 | 11007 ft | 267 kts | 340° |
| 2026-04-24 20:23 | 39.67487 | 39.37755 | 11000 ft | 261 kts | 340° |
| 2026-04-24 20:23 | 39.69175 | 39.37140 | 10979 ft | 244 kts | 340° |
| 2026-04-24 20:23 | 39.70798 | 39.36533 | 10975 ft | 242 kts | 339° |
| 2026-04-24 20:24 | 39.72413 | 39.35919 | 10991 ft | 242 kts | 339° |
| 2026-04-24 20:24 | 39.74027 | 39.35300 | 10998 ft | 241 kts | 339° |
| 2026-04-24 20:24 | 39.75504 | 39.34733 | 11032 ft | 208 kts | 338° |
| 2026-04-24 20:24 | 39.76801 | 39.34241 | 11037 ft | 173 kts | 338° |
| 2026-04-24 20:25 | 39.77930 | 39.33857 | 10988 ft | 171 kts | 345° |
| 2026-04-24 20:25 | 39.79081 | 39.34109 | 10831 ft | 169 kts | 25° |
| 2026-04-24 20:25 | 39.79871 | 39.35249 | 10206 ft | 175 kts | 67° |
| 2026-04-24 20:25 | 39.79968 | 39.36786 | 9606 ft | 174 kts | 105° |
| 2026-04-24 20:26 | 39.79338 | 39.38099 | 9159 ft | 173 kts | 142° |
| 2026-04-24 20:26 | 39.78263 | 39.38745 | 9029 ft | 171 kts | 165° |
| 2026-04-24 20:26 | 39.77119 | 39.39183 | 8997 ft | 171 kts | 164° |
| 2026-04-24 20:26 | 39.76044 | 39.39846 | 8981 ft | 174 kts | 141° |
| 2026-04-24 20:27 | 39.75387 | 39.41151 | 8996 ft | 174 kts | 115° |
| 2026-04-24 20:27 | 39.74907 | 39.42581 | 8633 ft | 171 kts | 114° |
| 2026-04-24 20:27 | 39.74107 | 39.43646 | 8050 ft | 167 kts | 161° |
| 2026-04-24 20:27 | 39.73011 | 39.43454 | 7385 ft | 162 kts | 213° |
| 2026-04-24 20:28 | 39.72433 | 39.42275 | 6780 ft | 161 kts | 266° |
| 2026-04-24 20:28 | 39.72912 | 39.41038 | 6383 ft | 162 kts | 326° |
| 2026-04-24 20:28 | 39.73990 | 39.40998 | 6021 ft | 163 kts | 24° |
| 2026-04-24 20:28 | 39.74578 | 39.42146 | 5357 ft | 159 kts | 92° |
| 2026-04-24 20:29 | 39.74313 | 39.43021 | 5284 ft | 161 kts | 127° |
| 2026-04-24 20:29 | 39.73463 | 39.44581 | 5026 ft | 159 kts | 111° |
| 2026-04-24 20:29 | 39.73085 | 39.45922 | 4758 ft | 158 kts | 110° |
| 2026-04-24 20:29 | 39.72713 | 39.47253 | 4502 ft | 157 kts | 110° |
| 2026-04-24 20:30 | 39.72308 | 39.48564 | 4255 ft | 156 kts | 111° |
| 2026-04-24 20:30 | 39.71933 | 39.49887 | 4040 ft | 155 kts | 111° |
| 2026-04-24 20:30 | 39.71544 | 39.51192 | 3822 ft | 155 kts | 110° |
| 2026-04-24 20:30 | 39.71203 | 39.52377 | 3800 ft | 125 kts | 111° |
| 2026-04-24 20:31 | 39.70942 | 39.53273 | 3797 ft | 89 kts | 111° |
| 2026-04-24 20:31 | 39.70774 | 39.53825 | 3799 ft | 32 kts | 112° |
| 2026-04-24 20:31 | 39.70716 | 39.53963 | 3798 ft | 14 kts | 92° |
| 2026-04-24 20:31 | 39.70763 | 39.53898 | 3799 ft | 16 kts | 279° |
| 2026-04-24 20:32 | 39.70796 | 39.53751 | 3799 ft | 18 kts | 289° |
| 2026-04-24 20:32 | 39.70843 | 39.53596 | 3799 ft | 19 kts | 292° |
| 2026-04-24 20:32 | 39.70893 | 39.53428 | 3798 ft | 21 kts | 290° |
| 2026-04-24 20:32 | 39.70944 | 39.53248 | 3797 ft | 22 kts | 290° |
| 2026-04-24 20:33 | 39.70999 | 39.53057 | 3799 ft | 23 kts | 290° |
| 2026-04-24 20:33 | 39.71057 | 39.52853 | 3800 ft | 25 kts | 290° |
| 2026-04-24 20:33 | 39.71120 | 39.52642 | 3801 ft | 24 kts | 292° |
| 2026-04-24 20:33 | 39.71186 | 39.52436 | 3800 ft | 25 kts | 292° |
| 2026-04-24 20:34 | 39.71249 | 39.52215 | 3798 ft | 27 kts | 290° |
| 2026-04-24 20:34 | 39.71296 | 39.52052 | 3798 ft | 19 kts | 297° |
| 2026-04-24 20:34 | 39.71383 | 39.52048 | 3798 ft | 6 kts | 18° |
| 2026-04-24 20:34 | 39.71429 | 39.52068 | 3798 ft | 8 kts | 18° |
| 2026-04-24 20:35 | 39.71491 | 39.52093 | 3798 ft | 10 kts | 19° |
| 2026-04-24 20:35 | 39.71565 | 39.52104 | 3798 ft | 12 kts | 323° |
| 2026-04-24 20:35 | 39.71634 | 39.52100 | 3798 ft | 6 kts | 24° |
| 2026-04-24 20:35 | 39.71655 | 39.52110 | 3796 ft | 0 kts | 21° |